Tropical Cyclones
[Index]
Main Index Home Page Stock Weather Photos Extreme Storms Discussion Storm News and Storm Chasing Reports Tropical Cyclones / Hurricanes / Typhoons Weather Data and Links Wild Fires / Bushfires Weather Observation Techniques Weather Picture Catalogue Tornado Pictures and Reports Stock Video Footage and DVDs for sale
Season 1981-1982 Tropical Cyclone CHRIS Track Map
Season 1981-1982 Summaries: [BoM-AU] [JTWC-AU] [JTWC-SIO] [JTWC-SPAC] [JTWC-SH]
<<- Previous TC | BoM 1981-1982 Season | Next TC ->>

click for intensity scale information  Lat/long Grid: Show Hide

 Date Labels: Show Hide

Bureau of Meteorology Tropical Cyclone Data

Name: CHRIS
Number: 624 / 198182_05

05 Jan 1982 00:00 UTC to 11 Jan 1982 12:00 UTC

    date/time    lat    long    hPa   cat  kts
1982-01-05 00   10.3   105.1   1007                     
1982-01-05 06   10.7   105.3   1006                     
1982-01-05 12   11.0   105.4   1005                     
1982-01-05 18   11.3   105.1   1004                     
1982-01-06 00   11.4   104.7   1003                     
1982-01-06 12   12.1   103.0    999                     
1982-01-06 18   12.7   101.6    997                     
1982-01-07 00   13.1   100.5    994    1                
1982-01-07 06   13.5    99.4    991    1                
1982-01-07 12   13.7    98.4    988    1                
1982-01-07 18   13.8    97.2    985    2                
1982-01-08 00   13.8    95.6    981    2                
1982-01-08 06   13.8    94.4    976    2                
1982-01-08 12   13.8    93.2    973    2                
1982-01-08 18   13.8    91.8    969    3                
1982-01-09 00   13.8    91.0    965    3                
1982-01-09 06   13.8    89.4    960    3                
1982-01-09 12   13.4    88.1    958    3                
1982-01-09 18   13.1    87.0    954    4                
1982-01-10 00   12.8    86.0    950    4                
1982-01-10 06   12.5    85.1    947    4                
1982-01-10 12   12.3    84.2    944    4                
1982-01-10 18   12.3    83.1    942    4                
1982-01-11 00   12.3    82.0    939    4                
1982-01-11 06   12.3    81.2    936    4                
1982-01-11 12   12.5    80.3    934    4                
Winds are 10-min average.

Tropical cyclone tracks developed by Michael Bath using data from the Bureau of Meteorology and Google Maps.


[Australian Severe Weather index] [Copyright Notice] [Email Contacts] [Search This Site] [Privacy Policy]
Document: tropical_cyclone_chris.htm Updated: 30 May 2013